Baxter, Minnesota
Current Conditions -  °F | °C
As of 12:47 AM on Tuesday 21 Oct 2014 (Local Time) from KBRD Reporting Station
Haze Haze  
Wind Chill: 34°   Ceiling: 200
Heat Index: 34°   Visibility: 0.75mi
Dew Point: 34°   Wind: 0mph
Humidity: 100%   Direction: NA
Pressure: 30.12"   Gusts: NA
Location:  46.34°N, 94.29°W
Report Text: KBRD 210547Z AUTO 00000KT 3/4SM BR VV002 01/01 A3012 RMK AO2
Loading
Personal Weather Stations






























Interactive Weather Map
Tropical Storm Tracking
New forecast layout! Learn more

10-Day Weather Forecast

Advertisements
Track Severe Weather on mobile